sensor_id;sensor_type;location;lat;lon;timestamp;pressure;altitude;pressure_sealevel;temperature;humidity
30081;BME280;16902;50.816;12.828;2024-03-29T00:00:53;96274.38;;;6.49;100.00
30081;BME280;16902;50.816;12.828;2024-03-29T00:05:54;96275.00;;;6.51;100.00
30081;BME280;16902;50.816;12.828;2024-03-29T00:10:55;96276.91;;;6.42;100.00
30081;BME280;16902;50.816;12.828;2024-03-29T00:15:56;96285.44;;;6.36;100.00
30081;BME280;16902;50.816;12.828;2024-03-29T00:20:57;96295.13;;;6.28;100.00
30081;BME280;16902;50.816;12.828;2024-03-29T00:25:58;96296.06;;;6.20;100.00
30081;BME280;16902;50.816;12.828;2024-03-29T00:30:59;96302.72;;;6.08;100.00
30081;BME280;16902;50.816;12.828;2024-03-29T00:36:00;96311.00;;;5.97;100.00
30081;BME280;16902;50.816;12.828;2024-03-29T00:41:01;96306.13;;;5.87;100.00
30081;BME280;16902;50.816;12.828;2024-03-29T00:46:02;96303.72;;;5.43;100.00
30081;BME280;16902;50.816;12.828;2024-03-29T00:51:03;96310.47;;;5.44;100.00
30081;BME280;16902;50.816;12.828;2024-03-29T00:56:04;96310.59;;;5.21;100.00
30081;BME280;16902;50.816;12.828;2024-03-29T01:01:05;96320.38;;;4.74;100.00
30081;BME280;16902;50.816;12.828;2024-03-29T01:06:06;96321.09;;;4.16;100.00
30081;BME280;16902;50.816;12.828;2024-03-29T01:11:07;96318.06;;;3.97;100.00
30081;BME280;16902;50.816;12.828;2024-03-29T01:16:07;96301.13;;;3.57;100.00
30081;BME280;16902;50.816;12.828;2024-03-29T01:21:08;96292.09;;;3.15;100.00
30081;BME280;16902;50.816;12.828;2024-03-29T01:26:09;96285.34;;;2.75;100.00
30081;BME280;16902;50.816;12.828;2024-03-29T01:31:13;96287.38;;;2.56;100.00
30081;BME280;16902;50.816;12.828;2024-03-29T01:36:14;96280.34;;;2.42;100.00
30081;BME280;16902;50.816;12.828;2024-03-29T01:41:15;96291.28;;;2.28;100.00
30081;BME280;16902;50.816;12.828;2024-03-29T01:46:17;96287.44;;;2.24;100.00
30081;BME280;16902;50.816;12.828;2024-03-29T01:51:21;96274.13;;;2.12;100.00
30081;BME280;16902;50.816;12.828;2024-03-29T01:56:25;96276.75;;;1.79;100.00
30081;BME280;16902;50.816;12.828;2024-03-29T02:01:26;96276.13;;;1.61;100.00
30081;BME280;16902;50.816;12.828;2024-03-29T02:06:28;96272.09;;;1.42;100.00
30081;BME280;16902;50.816;12.828;2024-03-29T02:11:30;96265.84;;;1.53;100.00
30081;BME280;16902;50.816;12.828;2024-03-29T02:16:32;96274.50;;;1.52;100.00
30081;BME280;16902;50.816;12.828;2024-03-29T02:21:36;96281.72;;;1.48;100.00
30081;BME280;16902;50.816;12.828;2024-03-29T02:26:38;96280.56;;;1.35;100.00
30081;BME280;16902;50.816;12.828;2024-03-29T02:31:42;96292.44;;;1.27;100.00
30081;BME280;16902;50.816;12.828;2024-03-29T02:36:43;96299.59;;;1.16;100.00
30081;BME280;16902;50.816;12.828;2024-03-29T02:41:45;96305.19;;;1.11;100.00
30081;BME280;16902;50.816;12.828;2024-03-29T02:46:46;96296.03;;;1.00;100.00
30081;BME280;16902;50.816;12.828;2024-03-29T02:51:47;96301.63;;;0.96;100.00
30081;BME280;16902;50.816;12.828;2024-03-29T02:56:50;96302.94;;;1.00;100.00
30081;BME280;16902;50.816;12.828;2024-03-29T03:01:51;96304.06;;;1.06;100.00
30081;BME280;16902;50.816;12.828;2024-03-29T03:06:51;96308.72;;;1.10;100.00
30081;BME280;16902;50.816;12.828;2024-03-29T03:11:52;96303.78;;;1.17;100.00
30081;BME280;16902;50.816;12.828;2024-03-29T03:16:53;96296.09;;;1.25;100.00
30081;BME280;16902;50.816;12.828;2024-03-29T03:21:54;96279.28;;;1.22;100.00
30081;BME280;16902;50.816;12.828;2024-03-29T03:26:55;96258.13;;;1.28;100.00
30081;BME280;16902;50.816;12.828;2024-03-29T03:31:56;96255.75;;;1.43;100.00
30081;BME280;16902;50.816;12.828;2024-03-29T03:36:57;96301.28;;;1.98;100.00
30081;BME280;16902;50.816;12.828;2024-03-29T03:41:57;96296.13;;;2.23;100.00
30081;BME280;16902;50.816;12.828;2024-03-29T03:46:58;96288.56;;;2.21;100.00
30081;BME280;16902;50.816;12.828;2024-03-29T03:51:59;96290.34;;;2.76;100.00
30081;BME280;16902;50.816;12.828;2024-03-29T03:57:00;96279.09;;;2.77;100.00
30081;BME280;16902;50.816;12.828;2024-03-29T04:02:01;96282.34;;;2.71;100.00
30081;BME280;16902;50.816;12.828;2024-03-29T04:07:02;96282.34;;;2.63;100.00
30081;BME280;16902;50.816;12.828;2024-03-29T04:12:03;96265.78;;;2.66;100.00
30081;BME280;16902;50.816;12.828;2024-03-29T04:17:04;96252.44;;;2.70;100.00
30081;BME280;16902;50.816;12.828;2024-03-29T04:22:05;96258.03;;;2.82;100.00
30081;BME280;16902;50.816;12.828;2024-03-29T04:27:06;96243.66;;;2.96;100.00
30081;BME280;16902;50.816;12.828;2024-03-29T04:32:07;96235.56;;;3.07;100.00
30081;BME280;16902;50.816;12.828;2024-03-29T04:37:08;96224.94;;;3.10;100.00
30081;BME280;16902;50.816;12.828;2024-03-29T04:42:09;96209.44;;;3.18;100.00
30081;BME280;16902;50.816;12.828;2024-03-29T04:47:10;96221.69;;;3.39;100.00
30081;BME280;16902;50.816;12.828;2024-03-29T04:52:11;96243.97;;;3.47;100.00
30081;BME280;16902;50.816;12.828;2024-03-29T04:57:12;96247.84;;;3.66;100.00
30081;BME280;16902;50.816;12.828;2024-03-29T05:02:13;96238.63;;;3.71;100.00
30081;BME280;16902;50.816;12.828;2024-03-29T05:07:14;96229.41;;;3.77;100.00
30081;BME280;16902;50.816;12.828;2024-03-29T05:12:15;96237.41;;;3.82;100.00
30081;BME280;16902;50.816;12.828;2024-03-29T05:17:16;96261.84;;;4.01;100.00
30081;BME280;16902;50.816;12.828;2024-03-29T05:22:17;96255.81;;;4.08;100.00
30081;BME280;16902;50.816;12.828;2024-03-29T05:27:18;96255.91;;;4.30;100.00
30081;BME280;16902;50.816;12.828;2024-03-29T05:32:19;96255.66;;;4.25;100.00
30081;BME280;16902;50.816;12.828;2024-03-29T05:37:20;96266.50;;;4.35;100.00
30081;BME280;16902;50.816;12.828;2024-03-29T05:42:22;96279.50;;;4.42;100.00
30081;BME280;16902;50.816;12.828;2024-03-29T05:47:23;96280.38;;;4.49;100.00
30081;BME280;16902;50.816;12.828;2024-03-29T05:52:24;96273.00;;;4.60;100.00
30081;BME280;16902;50.816;12.828;2024-03-29T05:57:25;96271.75;;;4.71;100.00
30081;BME280;16902;50.816;12.828;2024-03-29T06:02:31;96286.91;;;4.96;100.00
30081;BME280;16902;50.816;12.828;2024-03-29T06:07:32;96289.47;;;5.10;100.00
30081;BME280;16902;50.816;12.828;2024-03-29T06:12:34;96301.31;;;5.05;100.00
30081;BME280;16902;50.816;12.828;2024-03-29T06:17:41;96315.47;;;5.30;100.00
30081;BME280;16902;50.816;12.828;2024-03-29T06:22:42;96315.34;;;5.53;100.00
30081;BME280;16902;50.816;12.828;2024-03-29T06:27:42;96308.81;;;5.79;100.00
30081;BME280;16902;50.816;12.828;2024-03-29T06:32:50;96290.69;;;6.15;100.00
30081;BME280;16902;50.816;12.828;2024-03-29T06:37:50;96284.31;;;6.46;100.00
30081;BME280;16902;50.816;12.828;2024-03-29T06:42:51;96263.44;;;6.95;100.00
30081;BME280;16902;50.816;12.828;2024-03-29T06:47:52;96268.22;;;7.59;100.00
30081;BME280;16902;50.816;12.828;2024-03-29T06:52:53;96270.22;;;8.10;100.00
30081;BME280;16902;50.816;12.828;2024-03-29T06:57:55;96278.38;;;8.01;100.00
30081;BME280;16902;50.816;12.828;2024-03-29T07:02:57;96287.16;;;7.86;100.00
30081;BME280;16902;50.816;12.828;2024-03-29T07:07:58;96280.19;;;8.00;100.00
30081;BME280;16902;50.816;12.828;2024-03-29T07:13:00;96281.97;;;8.06;100.00
30081;BME280;16902;50.816;12.828;2024-03-29T07:18:01;96270.00;;;8.12;100.00
30081;BME280;16902;50.816;12.828;2024-03-29T07:23:03;96264.44;;;8.28;100.00
30081;BME280;16902;50.816;12.828;2024-03-29T07:28:04;96287.94;;;8.66;100.00
30081;BME280;16902;50.816;12.828;2024-03-29T07:33:05;96304.28;;;9.18;100.00
30081;BME280;16902;50.816;12.828;2024-03-29T07:38:06;96309.31;;;9.58;100.00
30081;BME280;16902;50.816;12.828;2024-03-29T07:43:07;96311.13;;;9.58;100.00
30081;BME280;16902;50.816;12.828;2024-03-29T07:48:12;96317.56;;;9.80;100.00
30081;BME280;16902;50.816;12.828;2024-03-29T07:53:13;96315.91;;;9.86;100.00
30081;BME280;16902;50.816;12.828;2024-03-29T07:58:14;96326.59;;;9.77;100.00
30081;BME280;16902;50.816;12.828;2024-03-29T08:03:17;96333.75;;;9.82;100.00
30081;BME280;16902;50.816;12.828;2024-03-29T08:08:18;96326.75;;;9.83;100.00
30081;BME280;16902;50.816;12.828;2024-03-29T08:13:19;96327.56;;;9.83;100.00
30081;BME280;16902;50.816;12.828;2024-03-29T08:18:21;96318.81;;;9.71;100.00
30081;BME280;16902;50.816;12.828;2024-03-29T08:23:23;96318.41;;;9.74;100.00
30081;BME280;16902;50.816;12.828;2024-03-29T08:28:24;96318.25;;;9.69;100.00
30081;BME280;16902;50.816;12.828;2024-03-29T08:33:25;96321.69;;;9.63;100.00
30081;BME280;16902;50.816;12.828;2024-03-29T08:38:26;96333.50;;;9.59;100.00
30081;BME280;16902;50.816;12.828;2024-03-29T08:43:27;96328.69;;;9.62;100.00
30081;BME280;16902;50.816;12.828;2024-03-29T08:48:28;96305.09;;;9.57;100.00
30081;BME280;16902;50.816;12.828;2024-03-29T08:53:29;96311.13;;;9.58;100.00
30081;BME280;16902;50.816;12.828;2024-03-29T08:58:30;96302.03;;;9.67;100.00
30081;BME280;16902;50.816;12.828;2024-03-29T09:03:31;96296.50;;;9.63;100.00
30081;BME280;16902;50.816;12.828;2024-03-29T09:08:32;96288.72;;;9.57;100.00
30081;BME280;16902;50.816;12.828;2024-03-29T09:13:33;96288.19;;;9.48;100.00
30081;BME280;16902;50.816;12.828;2024-03-29T09:18:34;96281.56;;;9.52;100.00
30081;BME280;16902;50.816;12.828;2024-03-29T09:23:35;96269.34;;;9.59;100.00
30081;BME280;16902;50.816;12.828;2024-03-29T09:28:35;96252.81;;;10.03;100.00
30081;BME280;16902;50.816;12.828;2024-03-29T09:33:37;96255.03;;;10.50;100.00
30081;BME280;16902;50.816;12.828;2024-03-29T09:38:39;96245.47;;;10.80;100.00
30081;BME280;16902;50.816;12.828;2024-03-29T09:43:42;96248.56;;;10.89;100.00
30081;BME280;16902;50.816;12.828;2024-03-29T09:48:44;96246.63;;;11.33;100.00
30081;BME280;16902;50.816;12.828;2024-03-29T09:53:49;96240.00;;;11.91;100.00
30081;BME280;16902;50.816;12.828;2024-03-29T09:58:50;96226.34;;;12.59;100.00
30081;BME280;16902;50.816;12.828;2024-03-29T10:03:53;96222.72;;;12.72;100.00
30081;BME280;16902;50.816;12.828;2024-03-29T10:08:54;96228.69;;;13.86;100.00
30081;BME280;16902;50.816;12.828;2024-03-29T10:13:58;96219.78;;;14.38;100.00
30081;BME280;16902;50.816;12.828;2024-03-29T10:18:59;96200.13;;;14.19;100.00
30081;BME280;16902;50.816;12.828;2024-03-29T10:24:13;96204.69;;;13.89;100.00
30081;BME280;16902;50.816;12.828;2024-03-29T10:29:15;96215.66;;;13.58;100.00
30081;BME280;16902;50.816;12.828;2024-03-29T10:34:17;96216.88;;;13.50;100.00
30081;BME280;16902;50.816;12.828;2024-03-29T10:39:18;96230.28;;;13.54;100.00
30081;BME280;16902;50.816;12.828;2024-03-29T10:44:20;96237.28;;;13.53;100.00
30081;BME280;16902;50.816;12.828;2024-03-29T10:49:21;96249.97;;;13.45;100.00
30081;BME280;16902;50.816;12.828;2024-03-29T10:54:24;96254.44;;;13.61;100.00
30081;BME280;16902;50.816;12.828;2024-03-29T10:59:37;96240.56;;;13.60;100.00
30081;BME280;16902;50.816;12.828;2024-03-29T11:04:43;96233.13;;;13.69;100.00
30081;BME280;16902;50.816;12.828;2024-03-29T11:09:46;96270.09;;;13.89;100.00
30081;BME280;16902;50.816;12.828;2024-03-29T11:15:02;96273.06;;;13.81;100.00
30081;BME280;16902;50.816;12.828;2024-03-29T11:20:03;96277.19;;;13.77;100.00
30081;BME280;16902;50.816;12.828;2024-03-29T11:25:05;96284.50;;;13.75;100.00
30081;BME280;16902;50.816;12.828;2024-03-29T11:30:07;96291.63;;;13.80;100.00
30081;BME280;16902;50.816;12.828;2024-03-29T11:35:14;96299.34;;;14.03;100.00
30081;BME280;16902;50.816;12.828;2024-03-29T11:40:16;96296.25;;;14.23;100.00
30081;BME280;16902;50.816;12.828;2024-03-29T11:45:16;96313.03;;;13.77;100.00
30081;BME280;16902;50.816;12.828;2024-03-29T11:50:17;96317.66;;;13.58;100.00
30081;BME280;16902;50.816;12.828;2024-03-29T11:55:18;96326.78;;;12.92;100.00
30081;BME280;16902;50.816;12.828;2024-03-29T12:00:20;96342.25;;;12.58;100.00
30081;BME280;16902;50.816;12.828;2024-03-29T12:05:21;96338.56;;;12.12;100.00
30081;BME280;16902;50.816;12.828;2024-03-29T12:10:26;96341.53;;;12.16;100.00
30081;BME280;16902;50.816;12.828;2024-03-29T12:15:28;96325.28;;;12.96;100.00
30081;BME280;16902;50.816;12.828;2024-03-29T12:20:29;96337.13;;;13.79;100.00
30081;BME280;16902;50.816;12.828;2024-03-29T12:25:32;96301.44;;;14.52;100.00
30081;BME280;16902;50.816;12.828;2024-03-29T12:30:33;96303.13;;;16.00;100.00
30081;BME280;16902;50.816;12.828;2024-03-29T12:35:35;96304.34;;;16.19;100.00
30081;BME280;16902;50.816;12.828;2024-03-29T12:40:38;96289.06;;;15.57;100.00
30081;BME280;16902;50.816;12.828;2024-03-29T12:45:41;96264.44;;;16.17;100.00
30081;BME280;16902;50.816;12.828;2024-03-29T12:50:46;96264.59;;;15.73;100.00
30081;BME280;16902;50.816;12.828;2024-03-29T12:55:48;96260.69;;;15.76;100.00
30081;BME280;16902;50.816;12.828;2024-03-29T13:00:49;96263.53;;;16.01;100.00
30081;BME280;16902;50.816;12.828;2024-03-29T13:05:50;96242.72;;;15.94;100.00
30081;BME280;16902;50.816;12.828;2024-03-29T13:10:50;96240.78;;;15.80;100.00
30081;BME280;16902;50.816;12.828;2024-03-29T13:15:51;96234.94;;;15.73;100.00
30081;BME280;16902;50.816;12.828;2024-03-29T13:20:52;96228.31;;;15.65;100.00
30081;BME280;16902;50.816;12.828;2024-03-29T13:25:53;96203.56;;;15.88;100.00
30081;BME280;16902;50.816;12.828;2024-03-29T13:30:57;96200.69;;;16.27;100.00
30081;BME280;16902;50.816;12.828;2024-03-29T13:35:58;96212.72;;;17.43;100.00
30081;BME280;16902;50.816;12.828;2024-03-29T13:40:59;96213.81;;;17.98;100.00
30081;BME280;16902;50.816;12.828;2024-03-29T13:46:00;96207.97;;;18.32;100.00
30081;BME280;16902;50.816;12.828;2024-03-29T13:51:01;96214.88;;;19.52;100.00
30081;BME280;16902;50.816;12.828;2024-03-29T13:56:02;96196.13;;;18.34;100.00
30081;BME280;16902;50.816;12.828;2024-03-29T14:01:04;96189.97;;;18.64;100.00
30081;BME280;16902;50.816;12.828;2024-03-29T14:06:05;96195.63;;;18.07;100.00
30081;BME280;16902;50.816;12.828;2024-03-29T14:11:06;96183.72;;;17.07;100.00
30081;BME280;16902;50.816;12.828;2024-03-29T14:16:07;96183.59;;;16.72;100.00
30081;BME280;16902;50.816;12.828;2024-03-29T14:21:08;96194.53;;;16.58;100.00
30081;BME280;16902;50.816;12.828;2024-03-29T14:26:09;96171.34;;;16.98;100.00
30081;BME280;16902;50.816;12.828;2024-03-29T14:31:10;96175.38;;;17.41;100.00
30081;BME280;16902;50.816;12.828;2024-03-29T14:36:11;96179.75;;;17.10;100.00
30081;BME280;16902;50.816;12.828;2024-03-29T14:41:12;96184.50;;;17.03;100.00
30081;BME280;16902;50.816;12.828;2024-03-29T14:46:13;96187.84;;;16.83;100.00
30081;BME280;16902;50.816;12.828;2024-03-29T14:51:16;96201.78;;;16.36;100.00
30081;BME280;16902;50.816;12.828;2024-03-29T14:56:17;96204.84;;;16.70;100.00
30081;BME280;16902;50.816;12.828;2024-03-29T15:01:18;96209.75;;;17.14;100.00
30081;BME280;16902;50.816;12.828;2024-03-29T15:06:18;96221.41;;;16.70;100.00
30081;BME280;16902;50.816;12.828;2024-03-29T15:11:21;96225.00;;;16.54;100.00
30081;BME280;16902;50.816;12.828;2024-03-29T15:16:23;96233.06;;;16.42;100.00
30081;BME280;16902;50.816;12.828;2024-03-29T15:21:28;96240.97;;;16.42;100.00
30081;BME280;16902;50.816;12.828;2024-03-29T15:26:29;96249.66;;;16.48;100.00
30081;BME280;16902;50.816;12.828;2024-03-29T15:31:30;96258.94;;;16.61;100.00
30081;BME280;16902;50.816;12.828;2024-03-29T15:36:31;96270.72;;;16.58;100.00
30081;BME280;16902;50.816;12.828;2024-03-29T15:41:33;96279.22;;;16.28;100.00
30081;BME280;16902;50.816;12.828;2024-03-29T15:46:35;96269.41;;;16.18;100.00
30081;BME280;16902;50.816;12.828;2024-03-29T15:51:36;96285.47;;;16.22;100.00
30081;BME280;16902;50.816;12.828;2024-03-29T15:56:37;96286.81;;;15.92;100.00
30081;BME280;16902;50.816;12.828;2024-03-29T16:01:38;96291.88;;;15.72;100.00
30081;BME280;16902;50.816;12.828;2024-03-29T16:06:39;96289.88;;;15.84;100.00
30081;BME280;16902;50.816;12.828;2024-03-29T16:11:40;96298.47;;;15.75;100.00
30081;BME280;16902;50.816;12.828;2024-03-29T16:16:41;96302.59;;;15.71;100.00
30081;BME280;16902;50.816;12.828;2024-03-29T16:21:42;96291.59;;;15.47;100.00
30081;BME280;16902;50.816;12.828;2024-03-29T16:26:42;96305.25;;;15.27;100.00
30081;BME280;16902;50.816;12.828;2024-03-29T16:31:43;96304.56;;;15.09;100.00
30081;BME280;16902;50.816;12.828;2024-03-29T16:36:44;96306.47;;;14.97;100.00
30081;BME280;16902;50.816;12.828;2024-03-29T16:41:47;96301.63;;;15.06;100.00
30081;BME280;16902;50.816;12.828;2024-03-29T16:46:49;96297.34;;;15.00;100.00
30081;BME280;16902;50.816;12.828;2024-03-29T16:51:50;96308.66;;;14.83;100.00
30081;BME280;16902;50.816;12.828;2024-03-29T16:56:51;96301.31;;;14.63;100.00
30081;BME280;16902;50.816;12.828;2024-03-29T17:01:51;96275.16;;;14.47;100.00
30081;BME280;16902;50.816;12.828;2024-03-29T17:06:52;96292.81;;;14.39;100.00
30081;BME280;16902;50.816;12.828;2024-03-29T17:11:53;96284.06;;;14.12;100.00
30081;BME280;16902;50.816;12.828;2024-03-29T17:16:55;96266.09;;;13.70;100.00
30081;BME280;16902;50.816;12.828;2024-03-29T17:21:58;96259.22;;;13.35;100.00
30081;BME280;16902;50.816;12.828;2024-03-29T17:26:59;96252.38;;;12.94;100.00
30081;BME280;16902;50.816;12.828;2024-03-29T17:32:00;96251.75;;;12.87;100.00
30081;BME280;16902;50.816;12.828;2024-03-29T17:37:00;96275.38;;;12.69;100.00
30081;BME280;16902;50.816;12.828;2024-03-29T17:42:01;96260.53;;;12.34;100.00
30081;BME280;16902;50.816;12.828;2024-03-29T17:47:03;96262.78;;;12.07;100.00
30081;BME280;16902;50.816;12.828;2024-03-29T17:52:04;96267.34;;;11.70;100.00
30081;BME280;16902;50.816;12.828;2024-03-29T17:57:05;96263.69;;;11.29;100.00
30081;BME280;16902;50.816;12.828;2024-03-29T18:02:06;96266.84;;;11.01;100.00
30081;BME280;16902;50.816;12.828;2024-03-29T18:07:07;96272.00;;;10.89;100.00
30081;BME280;16902;50.816;12.828;2024-03-29T18:12:08;96271.22;;;10.70;100.00
30081;BME280;16902;50.816;12.828;2024-03-29T18:17:09;96271.72;;;10.61;100.00
30081;BME280;16902;50.816;12.828;2024-03-29T18:22:10;96272.44;;;10.49;100.00
30081;BME280;16902;50.816;12.828;2024-03-29T18:27:12;96264.81;;;10.48;100.00
30081;BME280;16902;50.816;12.828;2024-03-29T18:32:12;96272.13;;;10.58;100.00
30081;BME280;16902;50.816;12.828;2024-03-29T18:37:13;96274.75;;;10.58;100.00
30081;BME280;16902;50.816;12.828;2024-03-29T18:42:14;96277.28;;;10.21;100.00
30081;BME280;16902;50.816;12.828;2024-03-29T18:47:15;96280.50;;;10.41;100.00
30081;BME280;16902;50.816;12.828;2024-03-29T18:52:16;96269.66;;;10.26;100.00
30081;BME280;16902;50.816;12.828;2024-03-29T18:57:17;96272.03;;;10.02;100.00
30081;BME280;16902;50.816;12.828;2024-03-29T19:02:18;96267.38;;;10.04;100.00
30081;BME280;16902;50.816;12.828;2024-03-29T19:07:18;96268.03;;;10.00;100.00
30081;BME280;16902;50.816;12.828;2024-03-29T19:12:19;96275.34;;;9.85;100.00
30081;BME280;16902;50.816;12.828;2024-03-29T19:17:22;96273.09;;;9.63;100.00
30081;BME280;16902;50.816;12.828;2024-03-29T19:22:23;96265.56;;;9.55;100.00
30081;BME280;16902;50.816;12.828;2024-03-29T19:27:24;96265.78;;;9.15;100.00
30081;BME280;16902;50.816;12.828;2024-03-29T19:32:27;96274.38;;;9.16;100.00
30081;BME280;16902;50.816;12.828;2024-03-29T19:37:28;96265.69;;;8.84;100.00
30081;BME280;16902;50.816;12.828;2024-03-29T19:42:29;96274.34;;;8.64;100.00
30081;BME280;16902;50.816;12.828;2024-03-29T19:47:30;96283.50;;;8.73;100.00
30081;BME280;16902;50.816;12.828;2024-03-29T19:52:31;96282.34;;;8.63;100.00
30081;BME280;16902;50.816;12.828;2024-03-29T19:57:32;96283.38;;;8.42;100.00
30081;BME280;16902;50.816;12.828;2024-03-29T20:02:34;96294.94;;;8.33;100.00
30081;BME280;16902;50.816;12.828;2024-03-29T20:07:35;96293.94;;;8.20;100.00
30081;BME280;16902;50.816;12.828;2024-03-29T20:12:35;96292.56;;;8.05;100.00
30081;BME280;16902;50.816;12.828;2024-03-29T20:17:39;96284.16;;;7.96;100.00
30081;BME280;16902;50.816;12.828;2024-03-29T20:22:40;96284.34;;;7.88;100.00
30081;BME280;16902;50.816;12.828;2024-03-29T20:27:41;96294.13;;;7.79;100.00
30081;BME280;16902;50.816;12.828;2024-03-29T20:32:48;96291.13;;;7.82;100.00
30081;BME280;16902;50.816;12.828;2024-03-29T20:37:49;96280.78;;;7.82;100.00
30081;BME280;16902;50.816;12.828;2024-03-29T20:42:50;96286.16;;;7.81;100.00
30081;BME280;16902;50.816;12.828;2024-03-29T20:47:50;96283.97;;;7.71;100.00
30081;BME280;16902;50.816;12.828;2024-03-29T20:52:52;96296.91;;;7.71;100.00
30081;BME280;16902;50.816;12.828;2024-03-29T20:57:53;96293.50;;;7.64;100.00
30081;BME280;16902;50.816;12.828;2024-03-29T21:02:54;96293.88;;;7.54;100.00
30081;BME280;16902;50.816;12.828;2024-03-29T21:08:14;96290.66;;;7.39;100.00
30081;BME280;16902;50.816;12.828;2024-03-29T21:13:15;96293.66;;;7.36;100.00
30081;BME280;16902;50.816;12.828;2024-03-29T21:18:16;96284.69;;;7.32;100.00
30081;BME280;16902;50.816;12.828;2024-03-29T21:23:17;96284.69;;;7.38;100.00
30081;BME280;16902;50.816;12.828;2024-03-29T21:28:18;96287.06;;;7.27;100.00
30081;BME280;16902;50.816;12.828;2024-03-29T21:33:19;96295.03;;;7.32;100.00
30081;BME280;16902;50.816;12.828;2024-03-29T21:38:20;96296.06;;;7.44;100.00
30081;BME280;16902;50.816;12.828;2024-03-29T21:43:21;96298.22;;;7.34;100.00
30081;BME280;16902;50.816;12.828;2024-03-29T21:48:22;96306.03;;;7.40;100.00
30081;BME280;16902;50.816;12.828;2024-03-29T21:53:23;96295.25;;;7.43;100.00
30081;BME280;16902;50.816;12.828;2024-03-29T21:58:24;96300.78;;;7.27;100.00
30081;BME280;16902;50.816;12.828;2024-03-29T22:03:25;96298.78;;;7.22;100.00
30081;BME280;16902;50.816;12.828;2024-03-29T22:08:26;96304.41;;;7.33;100.00
30081;BME280;16902;50.816;12.828;2024-03-29T22:13:27;96300.41;;;7.30;100.00
30081;BME280;16902;50.816;12.828;2024-03-29T22:18:28;96294.41;;;7.30;100.00
30081;BME280;16902;50.816;12.828;2024-03-29T22:23:29;96282.63;;;7.14;100.00
30081;BME280;16902;50.816;12.828;2024-03-29T22:28:30;96279.81;;;7.02;100.00
30081;BME280;16902;50.816;12.828;2024-03-29T22:33:31;96279.81;;;7.02;100.00
30081;BME280;16902;50.816;12.828;2024-03-29T22:38:32;96291.69;;;6.90;100.00
30081;BME280;16902;50.816;12.828;2024-03-29T22:43:33;96281.97;;;6.92;100.00
30081;BME280;16902;50.816;12.828;2024-03-29T22:48:34;96282.69;;;6.79;100.00
30081;BME280;16902;50.816;12.828;2024-03-29T22:53:35;96294.03;;;6.78;100.00
30081;BME280;16902;50.816;12.828;2024-03-29T22:58:35;96284.97;;;6.61;100.00
30081;BME280;16902;50.816;12.828;2024-03-29T23:03:36;96278.19;;;6.53;100.00
30081;BME280;16902;50.816;12.828;2024-03-29T23:08:37;96304.00;;;6.47;100.00
30081;BME280;16902;50.816;12.828;2024-03-29T23:13:41;96300.81;;;6.44;100.00
30081;BME280;16902;50.816;12.828;2024-03-29T23:18:42;96295.53;;;6.59;100.00
30081;BME280;16902;50.816;12.828;2024-03-29T23:23:43;96290.34;;;6.59;100.00
30081;BME280;16902;50.816;12.828;2024-03-29T23:28:44;96301.97;;;6.42;100.00
30081;BME280;16902;50.816;12.828;2024-03-29T23:33:45;96291.81;;;6.34;100.00
30081;BME280;16902;50.816;12.828;2024-03-29T23:38:46;96288.31;;;6.20;100.00
30081;BME280;16902;50.816;12.828;2024-03-29T23:43:47;96285.88;;;6.12;100.00
30081;BME280;16902;50.816;12.828;2024-03-29T23:48:48;96291.56;;;6.01;100.00
30081;BME280;16902;50.816;12.828;2024-03-29T23:53:49;96290.31;;;5.97;100.00
30081;BME280;16902;50.816;12.828;2024-03-29T23:58:49;96281.94;;;5.95;100.00
